sensor_id;sensor_type;location;lat;lon;timestamp;P1;durP1;ratioP1;P2;durP2;ratioP2
15230;SDS011;32569;51.762;8.564;2023-06-14T00:01:05;6.77;;;3.00;;
15230;SDS011;32569;51.762;8.564;2023-06-14T00:03:32;4.43;;;3.17;;
15230;SDS011;32569;51.762;8.564;2023-06-14T00:05:59;4.23;;;3.23;;
15230;SDS011;32569;51.762;8.564;2023-06-14T00:08:26;3.23;;;2.97;;
15230;SDS011;32569;51.762;8.564;2023-06-14T00:10:53;4.23;;;2.90;;
15230;SDS011;32569;51.762;8.564;2023-06-14T00:13:20;3.27;;;2.80;;
15230;SDS011;32569;51.762;8.564;2023-06-14T00:15:46;3.87;;;2.80;;
15230;SDS011;32569;51.762;8.564;2023-06-14T00:18:13;3.53;;;3.00;;
15230;SDS011;32569;51.762;8.564;2023-06-14T00:20:41;4.03;;;2.90;;
15230;SDS011;32569;51.762;8.564;2023-06-14T00:23:08;3.20;;;2.90;;
15230;SDS011;32569;51.762;8.564;2023-06-14T00:25:36;3.47;;;3.00;;
15230;SDS011;32569;51.762;8.564;2023-06-14T00:28:03;6.57;;;2.87;;
15230;SDS011;32569;51.762;8.564;2023-06-14T00:30:29;3.17;;;2.70;;
15230;SDS011;32569;51.762;8.564;2023-06-14T00:32:59;3.50;;;3.20;;
15230;SDS011;32569;51.762;8.564;2023-06-14T00:35:26;4.97;;;3.30;;
15230;SDS011;32569;51.762;8.564;2023-06-14T00:37:52;4.63;;;2.60;;
15230;SDS011;32569;51.762;8.564;2023-06-14T00:40:19;4.00;;;3.03;;
15230;SDS011;32569;51.762;8.564;2023-06-14T00:42:47;3.13;;;2.90;;
15230;SDS011;32569;51.762;8.564;2023-06-14T00:45:15;4.47;;;3.20;;
15230;SDS011;32569;51.762;8.564;2023-06-14T00:47:42;4.47;;;3.10;;
15230;SDS011;32569;51.762;8.564;2023-06-14T00:50:09;4.50;;;2.90;;
15230;SDS011;32569;51.762;8.564;2023-06-14T00:52:36;3.60;;;2.60;;
15230;SDS011;32569;51.762;8.564;2023-06-14T00:55:03;3.97;;;2.80;;
15230;SDS011;32569;51.762;8.564;2023-06-14T00:57:30;5.03;;;2.90;;
15230;SDS011;32569;51.762;8.564;2023-06-14T00:59:59;3.47;;;3.17;;
15230;SDS011;32569;51.762;8.564;2023-06-14T01:02:25;4.90;;;3.30;;
15230;SDS011;32569;51.762;8.564;2023-06-14T01:04:52;4.20;;;3.10;;
15230;SDS011;32569;51.762;8.564;2023-06-14T01:07:23;5.80;;;3.00;;
15230;SDS011;32569;51.762;8.564;2023-06-14T01:09:58;4.60;;;2.70;;
15230;SDS011;32569;51.762;8.564;2023-06-14T01:12:36;3.43;;;3.07;;
15230;SDS011;32569;51.762;8.564;2023-06-14T01:15:14;3.87;;;3.10;;
15230;SDS011;32569;51.762;8.564;2023-06-14T01:17:42;4.67;;;3.23;;
15230;SDS011;32569;51.762;8.564;2023-06-14T01:20:11;3.93;;;2.97;;
15230;SDS011;32569;51.762;8.564;2023-06-14T01:22:48;6.40;;;3.20;;
15230;SDS011;32569;51.762;8.564;2023-06-14T01:25:17;4.53;;;3.03;;
15230;SDS011;32569;51.762;8.564;2023-06-14T01:27:45;3.23;;;2.73;;
15230;SDS011;32569;51.762;8.564;2023-06-14T01:30:13;4.00;;;3.00;;
15230;SDS011;32569;51.762;8.564;2023-06-14T01:32:41;3.90;;;3.00;;
15230;SDS011;32569;51.762;8.564;2023-06-14T01:35:08;4.60;;;3.50;;
15230;SDS011;32569;51.762;8.564;2023-06-14T01:37:34;4.50;;;3.23;;
15230;SDS011;32569;51.762;8.564;2023-06-14T01:40:04;3.30;;;3.00;;
15230;SDS011;32569;51.762;8.564;2023-06-14T01:42:32;3.40;;;3.17;;
15230;SDS011;32569;51.762;8.564;2023-06-14T01:45:02;4.40;;;2.73;;
15230;SDS011;32569;51.762;8.564;2023-06-14T01:47:29;3.93;;;3.10;;
15230;SDS011;32569;51.762;8.564;2023-06-14T01:49:56;3.90;;;2.70;;
15230;SDS011;32569;51.762;8.564;2023-06-14T01:52:23;5.47;;;3.50;;
15230;SDS011;32569;51.762;8.564;2023-06-14T01:54:51;5.43;;;3.13;;
15230;SDS011;32569;51.762;8.564;2023-06-14T01:57:19;3.53;;;3.00;;
15230;SDS011;32569;51.762;8.564;2023-06-14T01:59:46;5.27;;;2.80;;
15230;SDS011;32569;51.762;8.564;2023-06-14T02:02:13;4.73;;;3.20;;
15230;SDS011;32569;51.762;8.564;2023-06-14T02:04:40;3.40;;;3.07;;
15230;SDS011;32569;51.762;8.564;2023-06-14T02:07:08;5.37;;;3.23;;
15230;SDS011;32569;51.762;8.564;2023-06-14T02:09:34;3.80;;;2.73;;
15230;SDS011;32569;51.762;8.564;2023-06-14T02:12:01;3.03;;;2.83;;
15230;SDS011;32569;51.762;8.564;2023-06-14T02:14:29;4.20;;;3.23;;
15230;SDS011;32569;51.762;8.564;2023-06-14T02:16:56;3.23;;;2.93;;
15230;SDS011;32569;51.762;8.564;2023-06-14T02:19:22;3.47;;;3.17;;
15230;SDS011;32569;51.762;8.564;2023-06-14T02:21:49;3.30;;;3.00;;
15230;SDS011;32569;51.762;8.564;2023-06-14T02:24:15;3.43;;;2.87;;
15230;SDS011;32569;51.762;8.564;2023-06-14T02:26:42;4.33;;;3.20;;
15230;SDS011;32569;51.762;8.564;2023-06-14T02:29:09;4.27;;;2.93;;
15230;SDS011;32569;51.762;8.564;2023-06-14T02:31:38;4.00;;;3.17;;
15230;SDS011;32569;51.762;8.564;2023-06-14T02:34:06;3.63;;;3.33;;
15230;SDS011;32569;51.762;8.564;2023-06-14T02:36:33;4.17;;;3.57;;
15230;SDS011;32569;51.762;8.564;2023-06-14T02:39:05;3.33;;;3.03;;
15230;SDS011;32569;51.762;8.564;2023-06-14T02:41:32;3.43;;;3.00;;
15230;SDS011;32569;51.762;8.564;2023-06-14T02:43:58;3.70;;;3.40;;
15230;SDS011;32569;51.762;8.564;2023-06-14T02:46:25;3.67;;;3.20;;
15230;SDS011;32569;51.762;8.564;2023-06-14T02:48:53;3.30;;;3.00;;
15230;SDS011;32569;51.762;8.564;2023-06-14T02:51:20;3.00;;;2.80;;
15230;SDS011;32569;51.762;8.564;2023-06-14T02:53:46;5.13;;;2.90;;
15230;SDS011;32569;51.762;8.564;2023-06-14T02:56:13;3.67;;;2.97;;
15230;SDS011;32569;51.762;8.564;2023-06-14T02:58:42;5.23;;;3.10;;
15230;SDS011;32569;51.762;8.564;2023-06-14T03:01:09;6.07;;;3.27;;
15230;SDS011;32569;51.762;8.564;2023-06-14T03:03:40;5.13;;;3.60;;
15230;SDS011;32569;51.762;8.564;2023-06-14T03:06:09;6.37;;;3.40;;
15230;SDS011;32569;51.762;8.564;2023-06-14T03:08:37;4.90;;;3.37;;
15230;SDS011;32569;51.762;8.564;2023-06-14T03:11:04;4.53;;;3.13;;
15230;SDS011;32569;51.762;8.564;2023-06-14T03:13:31;5.37;;;3.33;;
15230;SDS011;32569;51.762;8.564;2023-06-14T03:15:58;4.60;;;3.00;;
15230;SDS011;32569;51.762;8.564;2023-06-14T03:18:27;5.20;;;3.47;;
15230;SDS011;32569;51.762;8.564;2023-06-14T03:20:54;4.53;;;3.27;;
15230;SDS011;32569;51.762;8.564;2023-06-14T03:23:23;3.70;;;3.40;;
15230;SDS011;32569;51.762;8.564;2023-06-14T03:25:53;4.77;;;3.17;;
15230;SDS011;32569;51.762;8.564;2023-06-14T03:28:20;5.37;;;3.27;;
15230;SDS011;32569;51.762;8.564;2023-06-14T03:30:47;4.27;;;3.50;;
15230;SDS011;32569;51.762;8.564;2023-06-14T03:33:17;3.97;;;3.33;;
15230;SDS011;32569;51.762;8.564;2023-06-14T03:35:44;4.37;;;3.63;;
15230;SDS011;32569;51.762;8.564;2023-06-14T03:38:11;6.03;;;3.60;;
15230;SDS011;32569;51.762;8.564;2023-06-14T03:40:39;7.20;;;4.03;;
15230;SDS011;32569;51.762;8.564;2023-06-14T03:43:06;4.43;;;3.93;;
15230;SDS011;32569;51.762;8.564;2023-06-14T03:45:32;5.83;;;3.97;;
15230;SDS011;32569;51.762;8.564;2023-06-14T03:47:59;9.87;;;3.73;;
15230;SDS011;32569;51.762;8.564;2023-06-14T03:50:26;4.37;;;3.87;;
15230;SDS011;32569;51.762;8.564;2023-06-14T03:52:53;4.90;;;4.07;;
15230;SDS011;32569;51.762;8.564;2023-06-14T03:55:19;4.77;;;4.13;;
15230;SDS011;32569;51.762;8.564;2023-06-14T03:57:47;5.30;;;4.30;;
15230;SDS011;32569;51.762;8.564;2023-06-14T04:00:14;4.57;;;3.70;;
15230;SDS011;32569;51.762;8.564;2023-06-14T04:02:41;3.67;;;3.37;;
15230;SDS011;32569;51.762;8.564;2023-06-14T04:05:09;5.17;;;3.77;;
15230;SDS011;32569;51.762;8.564;2023-06-14T04:07:36;4.93;;;3.70;;
15230;SDS011;32569;51.762;8.564;2023-06-14T04:10:05;3.73;;;3.30;;
15230;SDS011;32569;51.762;8.564;2023-06-14T04:12:33;4.53;;;3.20;;
15230;SDS011;32569;51.762;8.564;2023-06-14T04:15:01;4.20;;;3.80;;
15230;SDS011;32569;51.762;8.564;2023-06-14T04:17:28;4.77;;;3.33;;
15230;SDS011;32569;51.762;8.564;2023-06-14T04:19:57;6.20;;;4.10;;
15230;SDS011;32569;51.762;8.564;2023-06-14T04:22:24;4.13;;;3.73;;
15230;SDS011;32569;51.762;8.564;2023-06-14T04:24:53;3.63;;;3.33;;
15230;SDS011;32569;51.762;8.564;2023-06-14T04:27:20;4.67;;;3.43;;
15230;SDS011;32569;51.762;8.564;2023-06-14T04:29:50;5.60;;;3.53;;
15230;SDS011;32569;51.762;8.564;2023-06-14T04:32:22;5.70;;;4.20;;
15230;SDS011;32569;51.762;8.564;2023-06-14T04:34:51;6.43;;;3.83;;
15230;SDS011;32569;51.762;8.564;2023-06-14T04:37:18;3.83;;;3.53;;
15230;SDS011;32569;51.762;8.564;2023-06-14T04:39:46;3.83;;;3.40;;
15230;SDS011;32569;51.762;8.564;2023-06-14T04:42:13;7.83;;;4.30;;
15230;SDS011;32569;51.762;8.564;2023-06-14T04:44:41;3.90;;;3.60;;
15230;SDS011;32569;51.762;8.564;2023-06-14T04:47:08;6.00;;;3.70;;
15230;SDS011;32569;51.762;8.564;2023-06-14T04:49:36;5.23;;;3.70;;
15230;SDS011;32569;51.762;8.564;2023-06-14T04:52:03;3.70;;;3.30;;
15230;SDS011;32569;51.762;8.564;2023-06-14T04:54:30;5.27;;;3.50;;
15230;SDS011;32569;51.762;8.564;2023-06-14T04:56:58;3.40;;;3.10;;
15230;SDS011;32569;51.762;8.564;2023-06-14T04:59:25;3.53;;;3.03;;
15230;SDS011;32569;51.762;8.564;2023-06-14T05:01:52;4.07;;;3.37;;
15230;SDS011;32569;51.762;8.564;2023-06-14T05:04:19;4.50;;;3.10;;
15230;SDS011;32569;51.762;8.564;2023-06-14T05:06:47;3.60;;;2.83;;
15230;SDS011;32569;51.762;8.564;2023-06-14T05:09:14;5.07;;;3.23;;
15230;SDS011;32569;51.762;8.564;2023-06-14T05:11:42;3.37;;;2.90;;
15230;SDS011;32569;51.762;8.564;2023-06-14T05:14:09;4.77;;;3.07;;
15230;SDS011;32569;51.762;8.564;2023-06-14T05:16:35;3.20;;;2.90;;
15230;SDS011;32569;51.762;8.564;2023-06-14T05:19:04;3.23;;;2.90;;
15230;SDS011;32569;51.762;8.564;2023-06-14T05:21:30;4.33;;;3.23;;
15230;SDS011;32569;51.762;8.564;2023-06-14T05:23:59;3.53;;;3.00;;
15230;SDS011;32569;51.762;8.564;2023-06-14T05:26:26;2.80;;;2.60;;
15230;SDS011;32569;51.762;8.564;2023-06-14T05:28:53;3.10;;;2.90;;
15230;SDS011;32569;51.762;8.564;2023-06-14T05:31:21;3.57;;;2.67;;
15230;SDS011;32569;51.762;8.564;2023-06-14T05:33:48;3.97;;;2.67;;
15230;SDS011;32569;51.762;8.564;2023-06-14T05:36:14;4.73;;;3.00;;
15230;SDS011;32569;51.762;8.564;2023-06-14T05:38:41;4.23;;;2.60;;
15230;SDS011;32569;51.762;8.564;2023-06-14T05:41:09;4.60;;;2.90;;
15230;SDS011;32569;51.762;8.564;2023-06-14T05:43:35;4.03;;;2.50;;
15230;SDS011;32569;51.762;8.564;2023-06-14T05:46:02;4.03;;;2.70;;
15230;SDS011;32569;51.762;8.564;2023-06-14T05:48:29;9.63;;;3.17;;
15230;SDS011;32569;51.762;8.564;2023-06-14T05:50:56;2.60;;;2.40;;
15230;SDS011;32569;51.762;8.564;2023-06-14T05:53:23;2.43;;;2.10;;
15230;SDS011;32569;51.762;8.564;2023-06-14T05:55:50;2.80;;;2.17;;
15230;SDS011;32569;51.762;8.564;2023-06-14T05:58:19;2.53;;;1.87;;
15230;SDS011;32569;51.762;8.564;2023-06-14T06:00:46;3.10;;;1.70;;
15230;SDS011;32569;51.762;8.564;2023-06-14T06:03:13;2.23;;;1.80;;
15230;SDS011;32569;51.762;8.564;2023-06-14T06:05:40;2.70;;;1.80;;
15230;SDS011;32569;51.762;8.564;2023-06-14T06:08:06;10.83;;;2.27;;
15230;SDS011;32569;51.762;8.564;2023-06-14T06:10:33;4.13;;;1.87;;
15230;SDS011;32569;51.762;8.564;2023-06-14T06:13:00;2.43;;;1.93;;
15230;SDS011;32569;51.762;8.564;2023-06-14T06:15:28;8.83;;;2.00;;
15230;SDS011;32569;51.762;8.564;2023-06-14T06:17:55;5.10;;;1.80;;
15230;SDS011;32569;51.762;8.564;2023-06-14T06:20:21;6.27;;;1.80;;
15230;SDS011;32569;51.762;8.564;2023-06-14T06:22:52;1.63;;;1.43;;
15230;SDS011;32569;51.762;8.564;2023-06-14T06:25:19;1.60;;;1.50;;
15230;SDS011;32569;51.762;8.564;2023-06-14T06:27:47;3.47;;;1.80;;
15230;SDS011;32569;51.762;8.564;2023-06-14T06:30:14;4.13;;;1.63;;
15230;SDS011;32569;51.762;8.564;2023-06-14T06:32:42;2.30;;;1.80;;
15230;SDS011;32569;51.762;8.564;2023-06-14T06:35:09;3.00;;;1.60;;
15230;SDS011;32569;51.762;8.564;2023-06-14T06:37:37;1.63;;;1.50;;
15230;SDS011;32569;51.762;8.564;2023-06-14T06:40:04;2.90;;;1.60;;
15230;SDS011;32569;51.762;8.564;2023-06-14T06:42:32;3.97;;;1.70;;
15230;SDS011;32569;51.762;8.564;2023-06-14T06:44:59;2.23;;;1.80;;
15230;SDS011;32569;51.762;8.564;2023-06-14T06:47:26;2.70;;;1.83;;
15230;SDS011;32569;51.762;8.564;2023-06-14T06:49:54;4.70;;;1.90;;
15230;SDS011;32569;51.762;8.564;2023-06-14T06:52:21;7.57;;;2.30;;
15230;SDS011;32569;51.762;8.564;2023-06-14T06:54:47;3.93;;;1.97;;
15230;SDS011;32569;51.762;8.564;2023-06-14T06:57:15;3.40;;;2.13;;
15230;SDS011;32569;51.762;8.564;2023-06-14T06:59:42;2.20;;;1.80;;
15230;SDS011;32569;51.762;8.564;2023-06-14T07:02:08;1.77;;;1.63;;
15230;SDS011;32569;51.762;8.564;2023-06-14T07:04:35;2.57;;;1.63;;
15230;SDS011;32569;51.762;8.564;2023-06-14T07:07:03;2.00;;;1.80;;
15230;SDS011;32569;51.762;8.564;2023-06-14T07:09:30;2.20;;;2.00;;
15230;SDS011;32569;51.762;8.564;2023-06-14T07:11:56;2.20;;;2.00;;
15230;SDS011;32569;51.762;8.564;2023-06-14T07:14:23;2.00;;;1.80;;
15230;SDS011;32569;51.762;8.564;2023-06-14T07:16:49;2.20;;;2.00;;
15230;SDS011;32569;51.762;8.564;2023-06-14T07:19:16;2.27;;;2.07;;
15230;SDS011;32569;51.762;8.564;2023-06-14T07:21:43;3.33;;;1.80;;
15230;SDS011;32569;51.762;8.564;2023-06-14T07:24:11;2.37;;;2.00;;
15230;SDS011;32569;51.762;8.564;2023-06-14T07:26:37;2.63;;;1.77;;
15230;SDS011;32569;51.762;8.564;2023-06-14T07:29:04;2.77;;;2.07;;
15230;SDS011;32569;51.762;8.564;2023-06-14T07:31:30;2.90;;;1.90;;
15230;SDS011;32569;51.762;8.564;2023-06-14T07:33:57;2.00;;;1.77;;
15230;SDS011;32569;51.762;8.564;2023-06-14T07:36:24;2.60;;;1.70;;
15230;SDS011;32569;51.762;8.564;2023-06-14T07:38:50;2.13;;;1.93;;
15230;SDS011;32569;51.762;8.564;2023-06-14T07:41:18;2.03;;;1.70;;
15230;SDS011;32569;51.762;8.564;2023-06-14T07:43:45;3.40;;;1.73;;
15230;SDS011;32569;51.762;8.564;2023-06-14T07:46:12;1.60;;;1.50;;
15230;SDS011;32569;51.762;8.564;2023-06-14T07:48:38;2.90;;;1.63;;
15230;SDS011;32569;51.762;8.564;2023-06-14T07:51:05;2.73;;;1.77;;
15230;SDS011;32569;51.762;8.564;2023-06-14T07:53:32;2.00;;;1.90;;
15230;SDS011;32569;51.762;8.564;2023-06-14T07:55:58;2.97;;;2.17;;
15230;SDS011;32569;51.762;8.564;2023-06-14T07:58:27;2.03;;;1.67;;
15230;SDS011;32569;51.762;8.564;2023-06-14T08:00:53;3.33;;;1.97;;
15230;SDS011;32569;51.762;8.564;2023-06-14T08:03:20;2.40;;;2.10;;
15230;SDS011;32569;51.762;8.564;2023-06-14T08:05:47;1.97;;;1.73;;
15230;SDS011;32569;51.762;8.564;2023-06-14T08:08:14;6.53;;;1.97;;
15230;SDS011;32569;51.762;8.564;2023-06-14T08:10:40;1.90;;;1.80;;
15230;SDS011;32569;51.762;8.564;2023-06-14T08:13:07;2.40;;;1.80;;
15230;SDS011;32569;51.762;8.564;2023-06-14T08:15:36;1.80;;;1.70;;
15230;SDS011;32569;51.762;8.564;2023-06-14T08:18:03;2.33;;;1.87;;
15230;SDS011;32569;51.762;8.564;2023-06-14T08:20:29;2.20;;;1.63;;
15230;SDS011;32569;51.762;8.564;2023-06-14T08:22:56;3.43;;;2.00;;
15230;SDS011;32569;51.762;8.564;2023-06-14T08:25:23;2.00;;;1.80;;
15230;SDS011;32569;51.762;8.564;2023-06-14T08:27:50;2.87;;;1.97;;
15230;SDS011;32569;51.762;8.564;2023-06-14T08:30:17;3.67;;;2.13;;
15230;SDS011;32569;51.762;8.564;2023-06-14T08:32:45;2.63;;;1.90;;
15230;SDS011;32569;51.762;8.564;2023-06-14T08:35:12;2.30;;;2.10;;
15230;SDS011;32569;51.762;8.564;2023-06-14T08:37:39;5.23;;;1.97;;
15230;SDS011;32569;51.762;8.564;2023-06-14T08:40:07;2.67;;;2.17;;
15230;SDS011;32569;51.762;8.564;2023-06-14T08:42:45;2.50;;;1.90;;
15230;SDS011;32569;51.762;8.564;2023-06-14T08:45:13;2.00;;;1.60;;
15230;SDS011;32569;51.762;8.564;2023-06-14T08:47:40;2.30;;;1.90;;
15230;SDS011;32569;51.762;8.564;2023-06-14T08:50:08;2.83;;;2.50;;
15230;SDS011;32569;51.762;8.564;2023-06-14T08:52:37;2.60;;;2.20;;
15230;SDS011;32569;51.762;8.564;2023-06-14T08:55:05;2.90;;;2.40;;
15230;SDS011;32569;51.762;8.564;2023-06-14T08:57:33;2.40;;;2.20;;
15230;SDS011;32569;51.762;8.564;2023-06-14T09:00:03;2.50;;;2.00;;
15230;SDS011;32569;51.762;8.564;2023-06-14T09:02:36;3.57;;;2.27;;
15230;SDS011;32569;51.762;8.564;2023-06-14T09:05:03;6.17;;;2.40;;
15230;SDS011;32569;51.762;8.564;2023-06-14T09:07:32;2.40;;;2.20;;
15230;SDS011;32569;51.762;8.564;2023-06-14T09:10:06;3.13;;;2.20;;
15230;SDS011;32569;51.762;8.564;2023-06-14T09:12:34;3.73;;;2.70;;
15230;SDS011;32569;51.762;8.564;2023-06-14T09:15:01;3.13;;;2.37;;
15230;SDS011;32569;51.762;8.564;2023-06-14T09:17:32;6.60;;;3.07;;
15230;SDS011;32569;51.762;8.564;2023-06-14T09:19:59;3.33;;;2.40;;
15230;SDS011;32569;51.762;8.564;2023-06-14T09:22:28;3.60;;;2.60;;
15230;SDS011;32569;51.762;8.564;2023-06-14T09:24:57;2.87;;;2.57;;
15230;SDS011;32569;51.762;8.564;2023-06-14T09:27:25;2.30;;;2.10;;
15230;SDS011;32569;51.762;8.564;2023-06-14T09:29:52;3.50;;;2.70;;
15230;SDS011;32569;51.762;8.564;2023-06-14T09:32:19;4.90;;;3.10;;
15230;SDS011;32569;51.762;8.564;2023-06-14T09:34:46;5.17;;;2.57;;
15230;SDS011;32569;51.762;8.564;2023-06-14T09:37:14;3.10;;;2.40;;
15230;SDS011;32569;51.762;8.564;2023-06-14T09:39:52;2.93;;;2.70;;
15230;SDS011;32569;51.762;8.564;2023-06-14T09:42:20;3.57;;;2.40;;
15230;SDS011;32569;51.762;8.564;2023-06-14T09:44:48;3.00;;;2.60;;
15230;SDS011;32569;51.762;8.564;2023-06-14T09:47:15;2.70;;;2.50;;
15230;SDS011;32569;51.762;8.564;2023-06-14T09:49:42;4.07;;;2.70;;
15230;SDS011;32569;51.762;8.564;2023-06-14T09:52:09;4.20;;;2.43;;
15230;SDS011;32569;51.762;8.564;2023-06-14T09:54:39;2.90;;;2.70;;
15230;SDS011;32569;51.762;8.564;2023-06-14T09:57:08;3.20;;;3.00;;
15230;SDS011;32569;51.762;8.564;2023-06-14T09:59:37;4.97;;;3.00;;
15230;SDS011;32569;51.762;8.564;2023-06-14T10:02:09;3.87;;;2.63;;
15230;SDS011;32569;51.762;8.564;2023-06-14T10:04:40;3.67;;;2.70;;
15230;SDS011;32569;51.762;8.564;2023-06-14T10:07:12;3.70;;;2.40;;
15230;SDS011;32569;51.762;8.564;2023-06-14T10:09:40;2.83;;;2.50;;
15230;SDS011;32569;51.762;8.564;2023-06-14T10:12:10;4.63;;;2.60;;
15230;SDS011;32569;51.762;8.564;2023-06-14T10:14:41;2.63;;;2.43;;
15230;SDS011;32569;51.762;8.564;2023-06-14T10:17:08;2.63;;;2.30;;
15230;SDS011;32569;51.762;8.564;2023-06-14T10:19:40;3.27;;;2.70;;
15230;SDS011;32569;51.762;8.564;2023-06-14T10:22:14;3.13;;;2.87;;
15230;SDS011;32569;51.762;8.564;2023-06-14T10:24:47;3.30;;;2.43;;
15230;SDS011;32569;51.762;8.564;2023-06-14T10:27:15;3.13;;;2.83;;
15230;SDS011;32569;51.762;8.564;2023-06-14T10:30:06;2.50;;;2.23;;
15230;SDS011;32569;51.762;8.564;2023-06-14T10:32:34;3.13;;;2.87;;
15230;SDS011;32569;51.762;8.564;2023-06-14T10:35:01;2.83;;;2.50;;
15230;SDS011;32569;51.762;8.564;2023-06-14T10:37:30;3.30;;;2.87;;
15230;SDS011;32569;51.762;8.564;2023-06-14T10:39:57;3.20;;;2.70;;
15230;SDS011;32569;51.762;8.564;2023-06-14T10:42:27;3.17;;;2.70;;
15230;SDS011;32569;51.762;8.564;2023-06-14T10:44:54;3.83;;;2.40;;
15230;SDS011;32569;51.762;8.564;2023-06-14T10:47:24;2.70;;;2.50;;
15230;SDS011;32569;51.762;8.564;2023-06-14T10:49:53;2.87;;;2.50;;
15230;SDS011;32569;51.762;8.564;2023-06-14T10:52:21;2.90;;;2.70;;
15230;SDS011;32569;51.762;8.564;2023-06-14T10:54:55;2.57;;;2.37;;
15230;SDS011;32569;51.762;8.564;2023-06-14T10:57:25;2.70;;;2.50;;
15230;SDS011;32569;51.762;8.564;2023-06-14T10:59:51;2.83;;;2.63;;
15230;SDS011;32569;51.762;8.564;2023-06-14T11:02:27;3.00;;;2.63;;
15230;SDS011;32569;51.762;8.564;2023-06-14T11:05:13;2.77;;;2.53;;
15230;SDS011;32569;51.762;8.564;2023-06-14T11:07:43;2.67;;;2.27;;
15230;SDS011;32569;51.762;8.564;2023-06-14T11:10:21;2.50;;;2.33;;
15230;SDS011;32569;51.762;8.564;2023-06-14T11:13:00;5.10;;;2.87;;
15230;SDS011;32569;51.762;8.564;2023-06-14T11:15:28;2.77;;;2.40;;
15230;SDS011;32569;51.762;8.564;2023-06-14T11:17:56;3.13;;;2.53;;
15230;SDS011;32569;51.762;8.564;2023-06-14T11:20:24;6.03;;;3.60;;
15230;SDS011;32569;51.762;8.564;2023-06-14T11:22:52;3.70;;;2.47;;
15230;SDS011;32569;51.762;8.564;2023-06-14T11:25:19;3.60;;;2.30;;
15230;SDS011;32569;51.762;8.564;2023-06-14T11:27:46;3.27;;;2.63;;
15230;SDS011;32569;51.762;8.564;2023-06-14T11:30:15;3.33;;;2.57;;
15230;SDS011;32569;51.762;8.564;2023-06-14T11:32:42;4.70;;;2.97;;
15230;SDS011;32569;51.762;8.564;2023-06-14T11:35:13;3.13;;;2.87;;
15230;SDS011;32569;51.762;8.564;2023-06-14T11:37:41;3.87;;;2.47;;
15230;SDS011;32569;51.762;8.564;2023-06-14T11:40:09;2.73;;;2.50;;
15230;SDS011;32569;51.762;8.564;2023-06-14T11:42:38;4.93;;;2.90;;
15230;SDS011;32569;51.762;8.564;2023-06-14T11:45:07;7.27;;;2.90;;
15230;SDS011;32569;51.762;8.564;2023-06-14T11:47:35;2.63;;;2.40;;
15230;SDS011;32569;51.762;8.564;2023-06-14T11:50:02;2.63;;;2.43;;
15230;SDS011;32569;51.762;8.564;2023-06-14T11:52:31;3.87;;;2.53;;
15230;SDS011;32569;51.762;8.564;2023-06-14T11:54:58;2.73;;;2.47;;
15230;SDS011;32569;51.762;8.564;2023-06-14T11:57:25;3.30;;;2.60;;
15230;SDS011;32569;51.762;8.564;2023-06-14T11:59:52;4.10;;;2.70;;
15230;SDS011;32569;51.762;8.564;2023-06-14T12:02:21;4.37;;;2.33;;
15230;SDS011;32569;51.762;8.564;2023-06-14T12:04:50;3.23;;;2.70;;
15230;SDS011;32569;51.762;8.564;2023-06-14T12:07:17;3.73;;;2.57;;
15230;SDS011;32569;51.762;8.564;2023-06-14T12:12:34;2.97;;;2.40;;
15230;SDS011;32569;51.762;8.564;2023-06-14T12:15:02;2.60;;;2.40;;
15230;SDS011;32569;51.762;8.564;2023-06-14T12:17:31;3.20;;;2.90;;
15230;SDS011;32569;51.762;8.564;2023-06-14T12:19:58;2.60;;;2.40;;
15230;SDS011;32569;51.762;8.564;2023-06-14T12:22:31;3.27;;;2.93;;
15230;SDS011;32569;51.762;8.564;2023-06-14T12:24:57;3.10;;;2.80;;
15230;SDS011;32569;51.762;8.564;2023-06-14T12:27:25;3.10;;;2.90;;
15230;SDS011;32569;51.762;8.564;2023-06-14T12:29:58;5.67;;;2.73;;
15230;SDS011;32569;51.762;8.564;2023-06-14T12:32:25;2.90;;;2.70;;
15230;SDS011;32569;51.762;8.564;2023-06-14T12:34:52;2.70;;;2.57;;
15230;SDS011;32569;51.762;8.564;2023-06-14T12:37:18;3.23;;;2.47;;
15230;SDS011;32569;51.762;8.564;2023-06-14T12:39:45;5.13;;;2.60;;
15230;SDS011;32569;51.762;8.564;2023-06-14T12:42:12;3.20;;;2.37;;
15230;SDS011;32569;51.762;8.564;2023-06-14T12:44:40;2.67;;;2.47;;
15230;SDS011;32569;51.762;8.564;2023-06-14T12:47:07;4.37;;;3.00;;
15230;SDS011;32569;51.762;8.564;2023-06-14T12:49:34;9.17;;;3.93;;
15230;SDS011;32569;51.762;8.564;2023-06-14T12:52:01;8.73;;;3.33;;
15230;SDS011;32569;51.762;8.564;2023-06-14T12:54:27;3.07;;;2.47;;
15230;SDS011;32569;51.762;8.564;2023-06-14T12:56:54;3.17;;;2.70;;
15230;SDS011;32569;51.762;8.564;2023-06-14T12:59:21;4.67;;;2.80;;
15230;SDS011;32569;51.762;8.564;2023-06-14T13:01:48;4.97;;;2.67;;
15230;SDS011;32569;51.762;8.564;2023-06-14T13:04:15;3.13;;;2.60;;
15230;SDS011;32569;51.762;8.564;2023-06-14T13:06:42;3.53;;;2.50;;
15230;SDS011;32569;51.762;8.564;2023-06-14T13:09:08;11.97;;;3.10;;
15230;SDS011;32569;51.762;8.564;2023-06-14T13:11:36;3.30;;;2.57;;
15230;SDS011;32569;51.762;8.564;2023-06-14T13:14:03;6.33;;;3.33;;
15230;SDS011;32569;51.762;8.564;2023-06-14T13:16:30;2.83;;;2.63;;
15230;SDS011;32569;51.762;8.564;2023-06-14T13:18:58;4.47;;;2.50;;
15230;SDS011;32569;51.762;8.564;2023-06-14T13:21:25;4.20;;;2.70;;
15230;SDS011;32569;51.762;8.564;2023-06-14T13:23:51;3.53;;;2.43;;
15230;SDS011;32569;51.762;8.564;2023-06-14T13:26:18;2.83;;;2.63;;
15230;SDS011;32569;51.762;8.564;2023-06-14T13:28:45;2.43;;;2.20;;
15230;SDS011;32569;51.762;8.564;2023-06-14T13:31:12;4.30;;;2.50;;
15230;SDS011;32569;51.762;8.564;2023-06-14T13:33:38;6.03;;;2.53;;
15230;SDS011;32569;51.762;8.564;2023-06-14T13:36:06;2.30;;;2.20;;
15230;SDS011;32569;51.762;8.564;2023-06-14T13:38:33;2.70;;;2.27;;
15230;SDS011;32569;51.762;8.564;2023-06-14T13:41:00;2.37;;;2.17;;
15230;SDS011;32569;51.762;8.564;2023-06-14T13:43:26;3.87;;;2.00;;
15230;SDS011;32569;51.762;8.564;2023-06-14T13:45:53;2.50;;;2.30;;
15230;SDS011;32569;51.762;8.564;2023-06-14T13:48:20;2.93;;;2.20;;
15230;SDS011;32569;51.762;8.564;2023-06-14T13:50:46;2.60;;;2.40;;
15230;SDS011;32569;51.762;8.564;2023-06-14T13:53:14;5.50;;;2.30;;
15230;SDS011;32569;51.762;8.564;2023-06-14T13:55:41;2.70;;;2.50;;
15230;SDS011;32569;51.762;8.564;2023-06-14T13:58:07;2.93;;;2.70;;
15230;SDS011;32569;51.762;8.564;2023-06-14T14:00:34;2.70;;;2.00;;
15230;SDS011;32569;51.762;8.564;2023-06-14T14:03:05;2.57;;;2.37;;
15230;SDS011;32569;51.762;8.564;2023-06-14T14:05:31;2.40;;;2.20;;
15230;SDS011;32569;51.762;8.564;2023-06-14T14:07:58;5.77;;;2.50;;
15230;SDS011;32569;51.762;8.564;2023-06-14T14:10:26;2.53;;;2.17;;
15230;SDS011;32569;51.762;8.564;2023-06-14T14:12:53;2.63;;;2.00;;
15230;SDS011;32569;51.762;8.564;2023-06-14T14:15:20;2.77;;;2.43;;
15230;SDS011;32569;51.762;8.564;2023-06-14T14:17:46;2.70;;;2.23;;
15230;SDS011;32569;51.762;8.564;2023-06-14T14:20:16;4.17;;;2.30;;
15230;SDS011;32569;51.762;8.564;2023-06-14T14:22:42;2.90;;;2.13;;
15230;SDS011;32569;51.762;8.564;2023-06-14T14:25:09;2.60;;;2.23;;
15230;SDS011;32569;51.762;8.564;2023-06-14T14:27:37;2.67;;;2.47;;
15230;SDS011;32569;51.762;8.564;2023-06-14T14:30:05;2.03;;;1.90;;
15230;SDS011;32569;51.762;8.564;2023-06-14T14:32:32;2.17;;;1.97;;
15230;SDS011;32569;51.762;8.564;2023-06-14T14:35:01;2.20;;;1.97;;
15230;SDS011;32569;51.762;8.564;2023-06-14T14:37:28;2.43;;;1.90;;
15230;SDS011;32569;51.762;8.564;2023-06-14T14:39:55;2.63;;;2.00;;
15230;SDS011;32569;51.762;8.564;2023-06-14T14:42:21;2.87;;;2.13;;
15230;SDS011;32569;51.762;8.564;2023-06-14T14:44:49;2.43;;;2.30;;
15230;SDS011;32569;51.762;8.564;2023-06-14T14:47:16;2.27;;;2.07;;
15230;SDS011;32569;51.762;8.564;2023-06-14T14:49:43;3.40;;;1.80;;
15230;SDS011;32569;51.762;8.564;2023-06-14T14:52:09;2.17;;;1.97;;
15230;SDS011;32569;51.762;8.564;2023-06-14T14:54:37;2.30;;;1.90;;